Terminal Aerodrome Forecast
Issued by NWS

Current Version | Previous Version | Graphics & Text | Print | Product List | Glossary On
Versions: 1 2 3 4 5 6 7 8 9 10 11 12 13 14 15 16 17 18 19 20 21 22 23 24 25 26 27 28 29 30
000
FTUS41 KPBZ 131735
TAFHLG
TAF
KHLG 131735Z 1318/1418 23010G16KT P6SM OVC050
     FM140000 18007KT 4SM -SN OVC050
     FM140200 19008KT 2SM -SN OVC025
     FM140600 23010KT 2SM -SHSN OVC020
     FM141200 31007KT P6SM BKN015=

USA.gov is the U.S. government's official web portal to all federal, state and local government web resources and services.